TAF KLSE
KLSE 280520Z 2806/2906 31009KT P6SM FEW035 FM280900 31011G20KT P6SM SCT250 FM282300 28008KT P6SM SCT250 FM290400 20005KT P6SM BKN150=
METAR KLSE
WC KLSE
WS KLSE
WV KLSE